ELLX Airport Information

Runway Information
Runway 06 Length 13123 ft width 197 ft
Elevation 1158 ft Threshold 0 ft Heading 60
Runway 24 Length 13123 ft Width 197 ft
Elevation 1214 ft Threshold 0 ft Heading 240
Airport Frequencies
Type APP Name APP Frequency 118.9 MHZ
Type ATIS Name ATIS Frequency 135.55 MHZ
Type TWR Name TWR Frequency 118.1 MHZ
Airport Navaids
Type NDB Name Luxembourg Frequency 369 KHZ
Type VOR-DME Name Luxembourg Frequency 112250 KHZ
Type NDB Name Luxembourg Frequency 346 KHZ
Airport Weather Information & NOTAM
ADDS - METARS form results

(1038 UTC 16 November 2018)
Data provider http://aviationweather.gov/metar/data/
 
METAR text: ELLX 161020Z 07007KT 7000 SCT007 BKN009 04/03 Q1027 BECMG BKN012
Conditions at: ELLX (LUXEMBOURG (AUT), LU) observed 1020 UTC 16 November 2018
Temperature: 4.0°C (39°F)
Dewpoint: 3.0°C (37°F) [RH = 93%]
Pressure (altimeter): 30.32 inches Hg (1027.0 mb)
Winds: from the ENE (70 degrees) at 8 MPH (7 knots; 3.6 m/s)
Visibility: 4 miles ( 7 km)
Ceiling: 900 feet AGL
Clouds: scattered clouds at 700 feet AGL
broken clouds at 900 feet AGL
Weather: no significant weather observed at this time

METAR text: ELLX 160950Z 07006KT 360V130 7000 FEW008 BKN009 03/03 Q1027 BECMG BKN012
Conditions at: ELLX (LUXEMBOURG (AUT), LU) observed 0950 UTC 16 November 2018
Temperature: 3.0°C (37°F)
Dewpoint: 3.0°C (37°F) [RH = 100%]
Pressure (altimeter): 30.32 inches Hg (1027.0 mb)
Winds: from the ENE (70 degrees) at 7 MPH (6 knots; 3.1 m/s)
Visibility: 4 miles ( 7 km)
Ceiling: 900 feet AGL
Clouds: few clouds at 800 feet AGL
broken clouds at 900 feet AGL
Weather: no significant weather observed at this time

Forecast for: ELLX (LUXEMBOURG (AUT), LU)
Text: TAF ELLX 160500Z 1606/1712 09005KT 2500 BR BKN003
Forecast period: 0600 to 1000 UTC 16 November 2018
Forecast type: FROM: standard forecast or significant change
Winds: from the E (90 degrees) at 6 MPH (5 knots; 2.6 m/s)
Visibility: 1.55 miles (2.49 km)
Ceiling: 300 feet AGL
Clouds: broken clouds at 300 feet AGL
Weather: BR  (mist)
Text: TEMPO 1606/1610 0150 FG VV001
Forecast period: 0600 to 1000 UTC 16 November 2018
Forecast type: TEMPORARY: The following changes expected for less than half the time period
Visibility: 0.09 miles (0.14 km)
Ceiling: indefinite ceiling with vertical visibility of 100 feet AGL
Clouds: obscured sky
Weather: FG  (fog)
Text: BECMG 1610/1612 8000 NSC
Forecast period: 1000 UTC 16 November 2018 to 1200 UTC 17 November 2018
Forecast type: BECOMING: Conditions expected to become as follows by 1200 UTC 16 November 2018
Winds: from the E (90 degrees) at 6 MPH (5 knots; 2.6 m/s)
Visibility: 5 miles (8 km)
Ceiling: unknown
Clouds: missing
Weather: BR  (mist)
Text: TEMPO 1620/1708 1500 BCFG
Forecast period: 2000 UTC 16 November 2018 to 0800 UTC 17 November 2018
Forecast type: TEMPORARY: The following changes expected for less than half the time period
Visibility: 0.93 miles (1.50 km)
Ceiling: unknown
Clouds: missing
Weather: BCFG  (patches of fog)